sensor_id;sensor_type;location;lat;lon;timestamp;P1;durP1;ratioP1;P2;durP2;ratioP2
9160;SDS011;4615;51.340;8.288;2024-03-23T00:53:21;5.72;;;3.30;;
9160;SDS011;4615;51.340;8.288;2024-03-23T00:55:48;6.63;;;3.08;;
9160;SDS011;4615;51.340;8.288;2024-03-23T00:58:13;5.00;;;2.43;;
9160;SDS011;4615;51.340;8.288;2024-03-23T01:00:39;4.97;;;2.77;;
9160;SDS011;4615;51.340;8.288;2024-03-23T01:03:06;5.13;;;2.50;;
9160;SDS011;4615;51.340;8.288;2024-03-23T01:05:32;4.43;;;2.63;;
9160;SDS011;4615;51.340;8.288;2024-03-23T01:07:58;4.80;;;2.60;;
9160;SDS011;4615;51.340;8.288;2024-03-23T01:10:25;5.55;;;2.72;;
9160;SDS011;4615;51.340;8.288;2024-03-23T01:12:51;5.22;;;2.83;;
9160;SDS011;4615;51.340;8.288;2024-03-23T01:15:18;4.85;;;2.78;;
9160;SDS011;4615;51.340;8.288;2024-03-23T01:17:43;4.80;;;2.40;;
9160;SDS011;4615;51.340;8.288;2024-03-23T01:20:10;5.22;;;2.22;;
9160;SDS011;4615;51.340;8.288;2024-03-23T01:22:35;5.13;;;2.47;;
9160;SDS011;4615;51.340;8.288;2024-03-23T01:25:02;3.97;;;2.22;;
9160;SDS011;4615;51.340;8.288;2024-03-23T01:27:28;5.00;;;2.70;;
9160;SDS011;4615;51.340;8.288;2024-03-23T01:29:55;4.82;;;2.47;;
9160;SDS011;4615;51.340;8.288;2024-03-23T01:32:20;5.25;;;2.70;;
9160;SDS011;4615;51.340;8.288;2024-03-23T01:34:49;5.28;;;2.70;;
9160;SDS011;4615;51.340;8.288;2024-03-23T01:37:14;6.00;;;2.70;;
9160;SDS011;4615;51.340;8.288;2024-03-23T01:39:41;5.32;;;2.72;;
9160;SDS011;4615;51.340;8.288;2024-03-23T01:42:06;5.32;;;2.83;;
9160;SDS011;4615;51.340;8.288;2024-03-23T01:44:34;5.57;;;3.22;;
9160;SDS011;4615;51.340;8.288;2024-03-23T01:46:59;7.10;;;3.10;;
9160;SDS011;4615;51.340;8.288;2024-03-23T01:49:25;4.90;;;3.22;;
9160;SDS011;4615;51.340;8.288;2024-03-23T01:51:51;6.57;;;3.47;;
9160;SDS011;4615;51.340;8.288;2024-03-23T01:54:17;6.38;;;4.30;;
9160;SDS011;4615;51.340;8.288;2024-03-23T01:56:43;5.15;;;3.55;;
9160;SDS011;4615;51.340;8.288;2024-03-23T01:59:10;6.20;;;3.65;;
9160;SDS011;4615;51.340;8.288;2024-03-23T02:01:37;6.70;;;4.17;;
9160;SDS011;4615;51.340;8.288;2024-03-23T02:04:03;7.95;;;4.82;;
9160;SDS011;4615;51.340;8.288;2024-03-23T02:06:28;8.88;;;4.30;;
9160;SDS011;4615;51.340;8.288;2024-03-23T02:08:55;4.87;;;2.93;;
9160;SDS011;4615;51.340;8.288;2024-03-23T02:11:20;4.30;;;2.57;;
9160;SDS011;4615;51.340;8.288;2024-03-23T02:13:47;4.63;;;2.38;;
9160;SDS011;4615;51.340;8.288;2024-03-23T02:16:12;3.45;;;2.00;;
9160;SDS011;4615;51.340;8.288;2024-03-23T02:18:40;3.03;;;1.70;;
9160;SDS011;4615;51.340;8.288;2024-03-23T02:21:06;2.80;;;1.80;;
9160;SDS011;4615;51.340;8.288;2024-03-23T02:23:33;3.45;;;1.63;;
9160;SDS011;4615;51.340;8.288;2024-03-23T02:25:59;2.80;;;1.55;;
9160;SDS011;4615;51.340;8.288;2024-03-23T02:28:25;1.92;;;1.60;;
9160;SDS011;4615;51.340;8.288;2024-03-23T02:30:50;2.10;;;1.50;;
9160;SDS011;4615;51.340;8.288;2024-03-23T02:33:17;2.45;;;1.50;;
9160;SDS011;4615;51.340;8.288;2024-03-23T02:35:43;2.67;;;1.43;;
9160;SDS011;4615;51.340;8.288;2024-03-23T02:38:09;2.22;;;1.52;;
9160;SDS011;4615;51.340;8.288;2024-03-23T02:40:36;2.37;;;1.50;;
9160;SDS011;4615;51.340;8.288;2024-03-23T02:43:02;2.33;;;1.63;;
9160;SDS011;4615;51.340;8.288;2024-03-23T02:45:28;2.88;;;1.50;;
9160;SDS011;4615;51.340;8.288;2024-03-23T02:47:54;3.93;;;1.70;;
9160;SDS011;4615;51.340;8.288;2024-03-23T02:50:20;2.00;;;1.45;;
9160;SDS011;4615;51.340;8.288;2024-03-23T02:52:47;3.23;;;1.50;;
9160;SDS011;4615;51.340;8.288;2024-03-23T02:55:12;2.37;;;1.60;;
9160;SDS011;4615;51.340;8.288;2024-03-23T02:57:40;2.05;;;1.60;;
9160;SDS011;4615;51.340;8.288;2024-03-23T03:00:06;2.22;;;1.50;;
9160;SDS011;4615;51.340;8.288;2024-03-23T03:02:34;3.47;;;1.77;;
9160;SDS011;4615;51.340;8.288;2024-03-23T03:05:00;3.47;;;1.97;;
9160;SDS011;4615;51.340;8.288;2024-03-23T03:07:26;2.92;;;1.90;;
9160;SDS011;4615;51.340;8.288;2024-03-23T03:09:51;3.80;;;1.90;;
9160;SDS011;4615;51.340;8.288;2024-03-23T03:12:18;3.13;;;1.90;;
9160;SDS011;4615;51.340;8.288;2024-03-23T03:14:44;3.03;;;1.70;;
9160;SDS011;4615;51.340;8.288;2024-03-23T03:17:11;2.93;;;1.80;;
9160;SDS011;4615;51.340;8.288;2024-03-23T03:19:36;2.00;;;1.40;;
9160;SDS011;4615;51.340;8.288;2024-03-23T03:22:02;2.10;;;1.42;;
9160;SDS011;4615;51.340;8.288;2024-03-23T03:24:29;1.60;;;1.20;;
9160;SDS011;4615;51.340;8.288;2024-03-23T03:26:55;2.33;;;1.25;;
9160;SDS011;4615;51.340;8.288;2024-03-23T03:29:21;2.30;;;1.40;;
9160;SDS011;4615;51.340;8.288;2024-03-23T03:31:49;2.83;;;1.48;;
9160;SDS011;4615;51.340;8.288;2024-03-23T03:34:15;2.50;;;1.52;;
9160;SDS011;4615;51.340;8.288;2024-03-23T03:36:41;2.17;;;1.60;;
9160;SDS011;4615;51.340;8.288;2024-03-23T03:39:06;2.20;;;1.60;;
9160;SDS011;4615;51.340;8.288;2024-03-23T03:41:33;2.78;;;1.60;;
9160;SDS011;4615;51.340;8.288;2024-03-23T03:43:58;3.03;;;1.70;;
9160;SDS011;4615;51.340;8.288;2024-03-23T03:46:26;2.72;;;1.50;;
9160;SDS011;4615;51.340;8.288;2024-03-23T03:48:53;2.63;;;1.52;;
9160;SDS011;4615;51.340;8.288;2024-03-23T03:51:20;1.90;;;1.60;;
9160;SDS011;4615;51.340;8.288;2024-03-23T03:53:46;2.08;;;1.50;;
9160;SDS011;4615;51.340;8.288;2024-03-23T03:56:12;2.92;;;1.80;;
9160;SDS011;4615;51.340;8.288;2024-03-23T03:58:37;3.10;;;1.80;;
9160;SDS011;4615;51.340;8.288;2024-03-23T04:01:05;3.30;;;1.65;;
9160;SDS011;4615;51.340;8.288;2024-03-23T04:03:30;3.10;;;1.70;;
9160;SDS011;4615;51.340;8.288;2024-03-23T04:05:58;1.70;;;1.40;;
9160;SDS011;4615;51.340;8.288;2024-03-23T04:08:23;2.30;;;1.55;;
9160;SDS011;4615;51.340;8.288;2024-03-23T04:10:50;3.30;;;1.77;;
9160;SDS011;4615;51.340;8.288;2024-03-23T04:13:15;2.47;;;1.67;;
9160;SDS011;4615;51.340;8.288;2024-03-23T04:15:41;2.63;;;1.60;;
9160;SDS011;4615;51.340;8.288;2024-03-23T04:18:07;3.47;;;1.80;;
9160;SDS011;4615;51.340;8.288;2024-03-23T04:20:33;3.42;;;1.90;;
9160;SDS011;4615;51.340;8.288;2024-03-23T04:23:00;2.20;;;1.60;;
9160;SDS011;4615;51.340;8.288;2024-03-23T04:25:26;1.70;;;1.50;;
9160;SDS011;4615;51.340;8.288;2024-03-23T04:27:52;3.22;;;1.60;;
9160;SDS011;4615;51.340;8.288;2024-03-23T04:30:18;1.90;;;1.52;;
9160;SDS011;4615;51.340;8.288;2024-03-23T04:32:44;3.65;;;1.92;;
9160;SDS011;4615;51.340;8.288;2024-03-23T04:35:10;4.28;;;2.40;;
9160;SDS011;4615;51.340;8.288;2024-03-23T04:37:36;3.70;;;2.30;;
9160;SDS011;4615;51.340;8.288;2024-03-23T04:40:04;3.72;;;2.30;;
9160;SDS011;4615;51.340;8.288;2024-03-23T04:42:32;4.20;;;2.28;;
9160;SDS011;4615;51.340;8.288;2024-03-23T04:44:58;4.32;;;2.25;;
9160;SDS011;4615;51.340;8.288;2024-03-23T04:47:25;3.40;;;2.23;;
9160;SDS011;4615;51.340;8.288;2024-03-23T04:49:51;4.97;;;2.22;;
9160;SDS011;4615;51.340;8.288;2024-03-23T04:52:17;4.05;;;2.35;;
9160;SDS011;4615;51.340;8.288;2024-03-23T04:54:44;3.28;;;2.25;;
9160;SDS011;4615;51.340;8.288;2024-03-23T04:57:11;3.78;;;2.28;;
9160;SDS011;4615;51.340;8.288;2024-03-23T04:59:38;3.22;;;2.20;;
9160;SDS011;4615;51.340;8.288;2024-03-23T05:02:03;4.13;;;2.00;;
9160;SDS011;4615;51.340;8.288;2024-03-23T05:04:30;3.28;;;1.85;;
9160;SDS011;4615;51.340;8.288;2024-03-23T05:06:57;4.07;;;2.00;;
9160;SDS011;4615;51.340;8.288;2024-03-23T05:09:23;2.45;;;1.73;;
9160;SDS011;4615;51.340;8.288;2024-03-23T05:11:49;2.70;;;1.70;;
9160;SDS011;4615;51.340;8.288;2024-03-23T05:14:16;2.87;;;1.80;;
9160;SDS011;4615;51.340;8.288;2024-03-23T05:16:42;3.05;;;2.13;;
9160;SDS011;4615;51.340;8.288;2024-03-23T05:19:08;3.00;;;2.10;;
9160;SDS011;4615;51.340;8.288;2024-03-23T05:21:33;3.97;;;2.30;;
9160;SDS011;4615;51.340;8.288;2024-03-23T05:24:00;4.20;;;1.95;;
9160;SDS011;4615;51.340;8.288;2024-03-23T05:26:25;3.60;;;2.60;;
9160;SDS011;4615;51.340;8.288;2024-03-23T05:28:51;3.20;;;2.00;;
9160;SDS011;4615;51.340;8.288;2024-03-23T05:31:24;3.97;;;2.30;;
9160;SDS011;4615;51.340;8.288;2024-03-23T05:33:50;4.33;;;2.20;;
9160;SDS011;4615;51.340;8.288;2024-03-23T05:36:15;3.73;;;2.00;;
9160;SDS011;4615;51.340;8.288;2024-03-23T05:38:42;4.03;;;2.20;;
9160;SDS011;4615;51.340;8.288;2024-03-23T05:41:07;4.05;;;2.42;;
9160;SDS011;4615;51.340;8.288;2024-03-23T05:43:34;5.75;;;2.53;;
9160;SDS011;4615;51.340;8.288;2024-03-23T05:45:59;4.80;;;2.63;;
9160;SDS011;4615;51.340;8.288;2024-03-23T05:48:28;5.03;;;2.42;;
9160;SDS011;4615;51.340;8.288;2024-03-23T05:50:55;3.35;;;2.63;;
9160;SDS011;4615;51.340;8.288;2024-03-23T05:53:21;5.43;;;2.78;;
9160;SDS011;4615;51.340;8.288;2024-03-23T05:55:47;6.27;;;3.10;;
9160;SDS011;4615;51.340;8.288;2024-03-23T05:58:14;5.07;;;2.67;;
9160;SDS011;4615;51.340;8.288;2024-03-23T06:00:39;6.70;;;3.10;;
9160;SDS011;4615;51.340;8.288;2024-03-23T06:03:07;5.78;;;2.90;;
9160;SDS011;4615;51.340;8.288;2024-03-23T06:05:34;5.23;;;2.80;;
9160;SDS011;4615;51.340;8.288;2024-03-23T06:08:00;6.25;;;2.60;;
9160;SDS011;4615;51.340;8.288;2024-03-23T06:10:26;5.83;;;2.47;;
9160;SDS011;4615;51.340;8.288;2024-03-23T06:12:52;5.32;;;2.95;;
9160;SDS011;4615;51.340;8.288;2024-03-23T06:15:18;8.45;;;3.25;;
9160;SDS011;4615;51.340;8.288;2024-03-23T06:17:44;7.73;;;3.10;;
9160;SDS011;4615;51.340;8.288;2024-03-23T06:20:10;6.88;;;3.33;;
9160;SDS011;4615;51.340;8.288;2024-03-23T06:22:37;7.18;;;3.40;;
9160;SDS011;4615;51.340;8.288;2024-03-23T06:25:04;6.82;;;3.80;;
9160;SDS011;4615;51.340;8.288;2024-03-23T06:27:29;8.82;;;3.78;;
9160;SDS011;4615;51.340;8.288;2024-03-23T06:29:57;7.57;;;3.78;;
9160;SDS011;4615;51.340;8.288;2024-03-23T06:32:23;8.05;;;3.97;;
9160;SDS011;4615;51.340;8.288;2024-03-23T06:34:48;8.63;;;4.03;;
9160;SDS011;4615;51.340;8.288;2024-03-23T06:37:15;8.00;;;4.00;;
9160;SDS011;4615;51.340;8.288;2024-03-23T06:39:41;7.73;;;4.07;;
9160;SDS011;4615;51.340;8.288;2024-03-23T06:42:08;8.18;;;4.05;;
9160;SDS011;4615;51.340;8.288;2024-03-23T06:44:33;8.03;;;3.80;;
9160;SDS011;4615;51.340;8.288;2024-03-23T06:47:00;6.15;;;3.80;;
9160;SDS011;4615;51.340;8.288;2024-03-23T06:49:25;7.38;;;4.10;;
9160;SDS011;4615;51.340;8.288;2024-03-23T06:51:52;9.50;;;4.30;;
9160;SDS011;4615;51.340;8.288;2024-03-23T06:54:17;10.67;;;4.23;;
9160;SDS011;4615;51.340;8.288;2024-03-23T06:56:45;9.20;;;4.00;;
9160;SDS011;4615;51.340;8.288;2024-03-23T06:59:11;9.00;;;3.72;;
9160;SDS011;4615;51.340;8.288;2024-03-23T07:01:37;10.60;;;4.05;;
9160;SDS011;4615;51.340;8.288;2024-03-23T07:04:05;8.73;;;3.72;;
9160;SDS011;4615;51.340;8.288;2024-03-23T07:06:32;9.00;;;3.90;;
9160;SDS011;4615;51.340;8.288;2024-03-23T07:08:57;10.43;;;4.33;;
9160;SDS011;4615;51.340;8.288;2024-03-23T07:11:24;8.23;;;3.97;;
9160;SDS011;4615;51.340;8.288;2024-03-23T07:13:51;9.77;;;3.90;;
9160;SDS011;4615;51.340;8.288;2024-03-23T07:16:17;9.18;;;3.97;;
9160;SDS011;4615;51.340;8.288;2024-03-23T07:18:42;9.73;;;5.22;;
9160;SDS011;4615;51.340;8.288;2024-03-23T07:21:09;9.10;;;5.10;;
9160;SDS011;4615;51.340;8.288;2024-03-23T07:23:34;9.50;;;5.50;;
9160;SDS011;4615;51.340;8.288;2024-03-23T07:26:01;7.88;;;4.75;;
9160;SDS011;4615;51.340;8.288;2024-03-23T07:28:27;8.87;;;4.90;;
9160;SDS011;4615;51.340;8.288;2024-03-23T07:31:04;10.00;;;5.53;;
9160;SDS011;4615;51.340;8.288;2024-03-23T07:33:30;8.30;;;5.20;;
9160;SDS011;4615;51.340;8.288;2024-03-23T07:35:56;8.25;;;5.13;;
9160;SDS011;4615;51.340;8.288;2024-03-23T07:38:23;7.63;;;5.33;;
9160;SDS011;4615;51.340;8.288;2024-03-23T07:40:49;10.15;;;5.93;;
9160;SDS011;4615;51.340;8.288;2024-03-23T07:43:19;8.10;;;6.13;;
9160;SDS011;4615;51.340;8.288;2024-03-23T07:45:50;7.97;;;6.18;;
9160;SDS011;4615;51.340;8.288;2024-03-23T07:48:17;7.30;;;6.10;;
9160;SDS011;4615;51.340;8.288;2024-03-23T07:50:43;9.25;;;6.10;;
9160;SDS011;4615;51.340;8.288;2024-03-23T07:53:09;10.45;;;6.80;;
9160;SDS011;4615;51.340;8.288;2024-03-23T07:55:35;8.65;;;6.35;;
9160;SDS011;4615;51.340;8.288;2024-03-23T07:58:01;7.50;;;6.70;;
9160;SDS011;4615;51.340;8.288;2024-03-23T08:00:27;7.25;;;5.90;;
9160;SDS011;4615;51.340;8.288;2024-03-23T08:02:52;6.72;;;5.72;;
9160;SDS011;4615;51.340;8.288;2024-03-23T08:05:20;6.68;;;5.50;;
9160;SDS011;4615;51.340;8.288;2024-03-23T08:07:46;7.18;;;6.40;;
9160;SDS011;4615;51.340;8.288;2024-03-23T08:10:16;8.02;;;6.30;;
9160;SDS011;4615;51.340;8.288;2024-03-23T08:12:45;9.00;;;7.05;;
9160;SDS011;4615;51.340;8.288;2024-03-23T08:15:12;9.13;;;7.63;;
9160;SDS011;4615;51.340;8.288;2024-03-23T08:17:37;8.70;;;7.80;;
9160;SDS011;4615;51.340;8.288;2024-03-23T08:20:04;11.23;;;8.00;;
9160;SDS011;4615;51.340;8.288;2024-03-23T08:22:31;10.75;;;8.15;;
9160;SDS011;4615;51.340;8.288;2024-03-23T08:24:57;10.30;;;8.13;;
9160;SDS011;4615;51.340;8.288;2024-03-23T08:27:22;10.77;;;8.23;;
9160;SDS011;4615;51.340;8.288;2024-03-23T08:29:49;11.68;;;8.30;;
9160;SDS011;4615;51.340;8.288;2024-03-23T08:32:14;12.27;;;9.17;;
9160;SDS011;4615;51.340;8.288;2024-03-23T08:34:42;15.23;;;9.23;;
9160;SDS011;4615;51.340;8.288;2024-03-23T08:37:07;12.93;;;9.10;;
9160;SDS011;4615;51.340;8.288;2024-03-23T08:39:35;12.85;;;8.43;;
9160;SDS011;4615;51.340;8.288;2024-03-23T08:42:00;13.52;;;8.30;;
9160;SDS011;4615;51.340;8.288;2024-03-23T08:44:26;12.95;;;8.65;;
9160;SDS011;4615;51.340;8.288;2024-03-23T08:46:52;10.00;;;7.60;;
9160;SDS011;4615;51.340;8.288;2024-03-23T08:49:21;12.30;;;7.88;;
9160;SDS011;4615;51.340;8.288;2024-03-23T08:51:47;14.43;;;8.90;;
9160;SDS011;4615;51.340;8.288;2024-03-23T08:54:13;12.30;;;7.97;;
9160;SDS011;4615;51.340;8.288;2024-03-23T08:56:59;11.15;;;8.20;;
9160;SDS011;4615;51.340;8.288;2024-03-23T08:59:25;11.15;;;7.43;;
9160;SDS011;4615;51.340;8.288;2024-03-23T09:01:50;11.93;;;7.70;;
9160;SDS011;4615;51.340;8.288;2024-03-23T09:04:17;11.38;;;7.50;;
9160;SDS011;4615;51.340;8.288;2024-03-23T09:06:42;10.87;;;7.33;;
9160;SDS011;4615;51.340;8.288;2024-03-23T09:09:08;13.23;;;7.90;;
9160;SDS011;4615;51.340;8.288;2024-03-23T09:11:34;11.17;;;7.13;;
9160;SDS011;4615;51.340;8.288;2024-03-23T09:14:02;11.95;;;7.25;;
9160;SDS011;4615;51.340;8.288;2024-03-23T09:16:27;10.68;;;6.32;;
9160;SDS011;4615;51.340;8.288;2024-03-23T09:18:54;12.57;;;6.95;;
9160;SDS011;4615;51.340;8.288;2024-03-23T09:21:19;14.33;;;6.70;;
9160;SDS011;4615;51.340;8.288;2024-03-23T09:23:45;10.90;;;6.25;;
9160;SDS011;4615;51.340;8.288;2024-03-23T09:26:11;13.13;;;6.50;;
9160;SDS011;4615;51.340;8.288;2024-03-23T09:28:37;11.65;;;5.95;;
9160;SDS011;4615;51.340;8.288;2024-03-23T09:31:04;10.23;;;5.80;;
9160;SDS011;4615;51.340;8.288;2024-03-23T09:33:30;10.32;;;6.00;;
9160;SDS011;4615;51.340;8.288;2024-03-23T09:35:56;10.20;;;6.07;;
9160;SDS011;4615;51.340;8.288;2024-03-23T09:38:22;10.07;;;5.70;;
9160;SDS011;4615;51.340;8.288;2024-03-23T09:40:48;10.13;;;5.90;;
9160;SDS011;4615;51.340;8.288;2024-03-23T09:43:16;11.85;;;6.10;;
9160;SDS011;4615;51.340;8.288;2024-03-23T09:45:41;11.03;;;5.23;;
9160;SDS011;4615;51.340;8.288;2024-03-23T09:48:11;11.38;;;4.68;;
9160;SDS011;4615;51.340;8.288;2024-03-23T09:50:37;9.27;;;4.70;;
9160;SDS011;4615;51.340;8.288;2024-03-23T09:53:04;8.55;;;4.22;;
9160;SDS011;4615;51.340;8.288;2024-03-23T09:55:29;8.77;;;4.10;;
9160;SDS011;4615;51.340;8.288;2024-03-23T09:57:56;10.55;;;4.25;;
9160;SDS011;4615;51.340;8.288;2024-03-23T10:00:21;9.95;;;4.43;;
9160;SDS011;4615;51.340;8.288;2024-03-23T10:02:47;9.18;;;3.50;;
9160;SDS011;4615;51.340;8.288;2024-03-23T10:05:21;8.30;;;3.77;;
9160;SDS011;4615;51.340;8.288;2024-03-23T10:07:48;9.32;;;3.88;;
9160;SDS011;4615;51.340;8.288;2024-03-23T10:10:13;8.43;;;3.78;;
9160;SDS011;4615;51.340;8.288;2024-03-23T10:12:43;10.77;;;3.70;;
9160;SDS011;4615;51.340;8.288;2024-03-23T10:15:09;9.05;;;3.60;;
9160;SDS011;4615;51.340;8.288;2024-03-23T10:17:41;7.53;;;3.10;;
9160;SDS011;4615;51.340;8.288;2024-03-23T10:20:07;8.00;;;3.70;;
9160;SDS011;4615;51.340;8.288;2024-03-23T10:22:38;9.32;;;3.88;;
9160;SDS011;4615;51.340;8.288;2024-03-23T10:25:07;9.18;;;3.50;;
9160;SDS011;4615;51.340;8.288;2024-03-23T10:27:34;9.10;;;3.53;;
9160;SDS011;4615;51.340;8.288;2024-03-23T10:30:07;8.15;;;3.20;;
9160;SDS011;4615;51.340;8.288;2024-03-23T10:32:33;3.78;;;1.95;;
9160;SDS011;4615;51.340;8.288;2024-03-23T10:35:04;2.90;;;2.00;;
9160;SDS011;4615;51.340;8.288;2024-03-23T10:37:40;2.67;;;1.65;;
9160;SDS011;4615;51.340;8.288;2024-03-23T10:40:06;2.00;;;1.50;;
9160;SDS011;4615;51.340;8.288;2024-03-23T10:42:34;1.50;;;1.40;;
9160;SDS011;4615;51.340;8.288;2024-03-23T10:44:59;1.80;;;1.43;;
9160;SDS011;4615;51.340;8.288;2024-03-23T10:47:26;2.67;;;1.43;;
9160;SDS011;4615;51.340;8.288;2024-03-23T10:49:51;2.20;;;1.23;;
9160;SDS011;4615;51.340;8.288;2024-03-23T10:52:17;1.50;;;1.00;;
9160;SDS011;4615;51.340;8.288;2024-03-23T10:54:44;2.63;;;1.50;;
9160;SDS011;4615;51.340;8.288;2024-03-23T10:57:14;4.63;;;2.37;;
9160;SDS011;4615;51.340;8.288;2024-03-23T10:59:41;4.78;;;2.50;;
9160;SDS011;4615;51.340;8.288;2024-03-23T11:02:07;5.30;;;2.90;;
9160;SDS011;4615;51.340;8.288;2024-03-23T11:04:43;5.82;;;3.10;;
9160;SDS011;4615;51.340;8.288;2024-03-23T11:07:28;4.30;;;2.83;;
9160;SDS011;4615;51.340;8.288;2024-03-23T11:09:54;4.97;;;2.80;;
9160;SDS011;4615;51.340;8.288;2024-03-23T11:12:25;6.07;;;3.03;;
9160;SDS011;4615;51.340;8.288;2024-03-23T11:14:51;4.93;;;3.00;;
9160;SDS011;4615;51.340;8.288;2024-03-23T11:17:18;5.00;;;3.00;;
9160;SDS011;4615;51.340;8.288;2024-03-23T11:19:44;5.07;;;2.80;;
9160;SDS011;4615;51.340;8.288;2024-03-23T11:22:25;7.05;;;3.03;;
9160;SDS011;4615;51.340;8.288;2024-03-23T11:25:04;5.78;;;3.00;;
9160;SDS011;4615;51.340;8.288;2024-03-23T11:27:38;5.15;;;2.90;;
9160;SDS011;4615;51.340;8.288;2024-03-23T11:30:13;5.93;;;2.80;;
9160;SDS011;4615;51.340;8.288;2024-03-23T11:32:40;5.00;;;2.60;;
9160;SDS011;4615;51.340;8.288;2024-03-23T11:35:06;6.00;;;2.85;;
9160;SDS011;4615;51.340;8.288;2024-03-23T11:37:34;4.43;;;2.75;;
9160;SDS011;4615;51.340;8.288;2024-03-23T11:39:59;5.70;;;2.77;;
9160;SDS011;4615;51.340;8.288;2024-03-23T11:42:28;6.03;;;2.85;;
9160;SDS011;4615;51.340;8.288;2024-03-23T11:44:53;5.57;;;2.90;;
9160;SDS011;4615;51.340;8.288;2024-03-23T11:47:19;5.25;;;2.67;;
9160;SDS011;4615;51.340;8.288;2024-03-23T11:49:45;4.97;;;2.60;;
9160;SDS011;4615;51.340;8.288;2024-03-23T11:52:14;5.88;;;2.60;;
9160;SDS011;4615;51.340;8.288;2024-03-23T11:54:41;4.40;;;2.50;;
9160;SDS011;4615;51.340;8.288;2024-03-23T11:57:07;4.40;;;2.40;;
9160;SDS011;4615;51.340;8.288;2024-03-23T11:59:35;4.88;;;2.50;;
9160;SDS011;4615;51.340;8.288;2024-03-23T12:02:06;3.70;;;2.45;;
9160;SDS011;4615;51.340;8.288;2024-03-23T12:04:31;4.57;;;2.90;;
9160;SDS011;4615;51.340;8.288;2024-03-23T12:07:12;5.43;;;2.88;;
9160;SDS011;4615;51.340;8.288;2024-03-23T12:09:37;5.13;;;2.72;;
9160;SDS011;4615;51.340;8.288;2024-03-23T12:12:08;6.27;;;2.97;;
9160;SDS011;4615;51.340;8.288;2024-03-23T12:14:36;5.57;;;2.97;;
9160;SDS011;4615;51.340;8.288;2024-03-23T12:17:09;5.57;;;2.53;;
9160;SDS011;4615;51.340;8.288;2024-03-23T12:19:35;3.10;;;2.17;;
9160;SDS011;4615;51.340;8.288;2024-03-23T12:22:02;4.13;;;2.22;;
9160;SDS011;4615;51.340;8.288;2024-03-23T12:24:27;4.40;;;2.40;;
9160;SDS011;4615;51.340;8.288;2024-03-23T12:26:54;4.55;;;2.30;;
9160;SDS011;4615;51.340;8.288;2024-03-23T12:29:22;2.88;;;1.60;;
9160;SDS011;4615;51.340;8.288;2024-03-23T12:31:49;4.60;;;3.50;;
9160;SDS011;4615;51.340;8.288;2024-03-23T12:34:15;4.63;;;3.25;;
9160;SDS011;4615;51.340;8.288;2024-03-23T12:36:41;3.20;;;1.77;;
9160;SDS011;4615;51.340;8.288;2024-03-23T12:39:06;2.97;;;1.50;;
9160;SDS011;4615;51.340;8.288;2024-03-23T12:41:33;3.15;;;1.60;;
9160;SDS011;4615;51.340;8.288;2024-03-23T12:43:58;2.80;;;1.60;;
9160;SDS011;4615;51.340;8.288;2024-03-23T12:46:24;2.10;;;1.60;;
9160;SDS011;4615;51.340;8.288;2024-03-23T12:48:51;2.17;;;1.40;;
9160;SDS011;4615;51.340;8.288;2024-03-23T12:51:18;1.85;;;1.42;;
9160;SDS011;4615;51.340;8.288;2024-03-23T12:53:43;2.03;;;1.60;;
9160;SDS011;4615;51.340;8.288;2024-03-23T12:56:11;2.28;;;1.50;;
9160;SDS011;4615;51.340;8.288;2024-03-23T12:58:36;2.88;;;1.48;;
9160;SDS011;4615;51.340;8.288;2024-03-23T13:01:03;2.50;;;1.70;;
9160;SDS011;4615;51.340;8.288;2024-03-23T13:03:28;1.83;;;1.40;;
9160;SDS011;4615;51.340;8.288;2024-03-23T13:05:56;3.40;;;1.60;;
9160;SDS011;4615;51.340;8.288;2024-03-23T13:08:21;2.53;;;1.70;;
9160;SDS011;4615;51.340;8.288;2024-03-23T13:10:51;2.78;;;1.70;;
9160;SDS011;4615;51.340;8.288;2024-03-23T13:13:16;3.42;;;1.80;;
9160;SDS011;4615;51.340;8.288;2024-03-23T13:15:42;2.67;;;1.58;;
9160;SDS011;4615;51.340;8.288;2024-03-23T13:18:14;3.30;;;1.70;;
9160;SDS011;4615;51.340;8.288;2024-03-23T13:20:41;2.50;;;1.58;;
9160;SDS011;4615;51.340;8.288;2024-03-23T13:23:08;3.03;;;1.70;;
9160;SDS011;4615;51.340;8.288;2024-03-23T13:25:34;3.38;;;1.90;;
9160;SDS011;4615;51.340;8.288;2024-03-23T13:28:00;3.10;;;1.83;;
9160;SDS011;4615;51.340;8.288;2024-03-23T13:30:28;3.58;;;1.70;;
9160;SDS011;4615;51.340;8.288;2024-03-23T13:32:54;4.75;;;2.05;;
9160;SDS011;4615;51.340;8.288;2024-03-23T13:35:20;3.20;;;1.90;;
9160;SDS011;4615;51.340;8.288;2024-03-23T13:37:46;2.83;;;1.93;;
9160;SDS011;4615;51.340;8.288;2024-03-23T13:40:14;3.80;;;2.10;;
9160;SDS011;4615;51.340;8.288;2024-03-23T13:42:41;3.63;;;1.95;;
9160;SDS011;4615;51.340;8.288;2024-03-23T13:45:07;3.47;;;2.00;;
9160;SDS011;4615;51.340;8.288;2024-03-23T13:47:33;3.67;;;2.05;;
9160;SDS011;4615;51.340;8.288;2024-03-23T13:49:59;2.58;;;1.70;;
9160;SDS011;4615;51.340;8.288;2024-03-23T13:52:25;2.90;;;1.90;;
9160;SDS011;4615;51.340;8.288;2024-03-23T13:54:51;3.30;;;1.67;;
9160;SDS011;4615;51.340;8.288;2024-03-23T13:57:18;2.77;;;1.60;;
9160;SDS011;4615;51.340;8.288;2024-03-23T13:59:46;2.90;;;1.60;;
9160;SDS011;4615;51.340;8.288;2024-03-23T14:02:11;2.50;;;1.40;;
9160;SDS011;4615;51.340;8.288;2024-03-23T14:04:39;2.30;;;1.40;;
9160;SDS011;4615;51.340;8.288;2024-03-23T14:07:05;3.73;;;1.63;;
9160;SDS011;4615;51.340;8.288;2024-03-23T14:09:32;2.50;;;1.97;;
9160;SDS011;4615;51.340;8.288;2024-03-23T14:11:58;1.83;;;1.27;;
9160;SDS011;4615;51.340;8.288;2024-03-23T14:14:26;2.88;;;1.50;;
9160;SDS011;4615;51.340;8.288;2024-03-23T14:16:52;2.25;;;1.30;;
9160;SDS011;4615;51.340;8.288;2024-03-23T14:19:19;3.83;;;1.60;;
9160;SDS011;4615;51.340;8.288;2024-03-23T14:21:44;1.77;;;1.40;;
9160;SDS011;4615;51.340;8.288;2024-03-23T14:24:11;2.97;;;1.70;;
9160;SDS011;4615;51.340;8.288;2024-03-23T14:26:36;4.17;;;1.73;;
9160;SDS011;4615;51.340;8.288;2024-03-23T14:29:03;2.28;;;1.40;;
9160;SDS011;4615;51.340;8.288;2024-03-23T14:31:30;2.70;;;1.60;;
9160;SDS011;4615;51.340;8.288;2024-03-23T14:33:56;3.30;;;1.73;;
9160;SDS011;4615;51.340;8.288;2024-03-23T14:36:22;3.50;;;1.83;;
9160;SDS011;4615;51.340;8.288;2024-03-23T14:38:50;4.60;;;1.80;;
9160;SDS011;4615;51.340;8.288;2024-03-23T14:41:15;2.42;;;1.50;;
9160;SDS011;4615;51.340;8.288;2024-03-23T14:43:42;3.25;;;1.60;;
9160;SDS011;4615;51.340;8.288;2024-03-23T14:46:09;2.83;;;1.58;;
9160;SDS011;4615;51.340;8.288;2024-03-23T14:48:37;2.40;;;1.50;;
9160;SDS011;4615;51.340;8.288;2024-03-23T14:51:02;2.78;;;1.55;;
9160;SDS011;4615;51.340;8.288;2024-03-23T14:53:30;2.88;;;1.50;;
9160;SDS011;4615;51.340;8.288;2024-03-23T14:55:56;3.00;;;1.57;;
9160;SDS011;4615;51.340;8.288;2024-03-23T14:58:22;3.55;;;1.90;;
9160;SDS011;4615;51.340;8.288;2024-03-23T15:00:49;3.30;;;1.80;;
9160;SDS011;4615;51.340;8.288;2024-03-23T15:03:16;4.70;;;2.20;;
9160;SDS011;4615;51.340;8.288;2024-03-23T15:05:43;4.27;;;1.93;;
9160;SDS011;4615;51.340;8.288;2024-03-23T15:08:17;2.97;;;1.67;;
9160;SDS011;4615;51.340;8.288;2024-03-23T15:10:43;3.07;;;1.73;;
9160;SDS011;4615;51.340;8.288;2024-03-23T15:13:09;3.75;;;1.80;;
9160;SDS011;4615;51.340;8.288;2024-03-23T15:15:37;5.10;;;1.70;;
9160;SDS011;4615;51.340;8.288;2024-03-23T15:18:04;3.47;;;1.73;;
9160;SDS011;4615;51.340;8.288;2024-03-23T15:20:29;5.23;;;1.90;;
9160;SDS011;4615;51.340;8.288;2024-03-23T15:22:57;2.05;;;1.45;;
9160;SDS011;4615;51.340;8.288;2024-03-23T15:25:22;2.00;;;1.50;;
9160;SDS011;4615;51.340;8.288;2024-03-23T15:27:49;3.00;;;1.48;;
9160;SDS011;4615;51.340;8.288;2024-03-23T15:30:14;3.33;;;1.90;;
9160;SDS011;4615;51.340;8.288;2024-03-23T15:32:40;2.80;;;1.60;;
9160;SDS011;4615;51.340;8.288;2024-03-23T15:35:06;2.87;;;1.50;;
9160;SDS011;4615;51.340;8.288;2024-03-23T15:37:32;2.90;;;1.70;;
9160;SDS011;4615;51.340;8.288;2024-03-23T15:40:01;3.20;;;1.50;;
9160;SDS011;4615;51.340;8.288;2024-03-23T15:42:27;3.55;;;1.60;;
9160;SDS011;4615;51.340;8.288;2024-03-23T15:44:52;2.10;;;1.20;;
9160;SDS011;4615;51.340;8.288;2024-03-23T15:47:19;2.93;;;1.57;;
9160;SDS011;4615;51.340;8.288;2024-03-23T15:49:45;2.10;;;1.35;;
9160;SDS011;4615;51.340;8.288;2024-03-23T15:52:12;2.60;;;1.35;;
9160;SDS011;4615;51.340;8.288;2024-03-23T15:54:37;1.98;;;1.40;;
9160;SDS011;4615;51.340;8.288;2024-03-23T15:57:05;3.13;;;1.40;;
9160;SDS011;4615;51.340;8.288;2024-03-23T15:59:32;2.38;;;1.33;;
9160;SDS011;4615;51.340;8.288;2024-03-23T16:01:58;2.27;;;1.40;;
9160;SDS011;4615;51.340;8.288;2024-03-23T16:04:24;3.10;;;1.53;;